Blue Heron — WCX7521 — position and weather

sailwx.info

Track history (hours):
 
Tides and Currents Weather Stations Pressure Air Temp Water Temp Dewpoint Dewpoint Depression Visibility Wind Speed Wind Dir Waves Ship Positions

Oceanographic research ship Blue Heron (USA)

Detailed information on ship capabilities available from University of Delaware's Ocean Information Center.

Owner: REGENTS OF THE UNIVERSITY OF MINNESOTA, DULUTH, MN. More information available from US FCC via Universal Licensing System and Coast Guard Vessel Documentation Center.

Last reported at 2018-Jun-24 09:00 UTC. Time now 2018-Jun-24 09:17 UTC.
Position N 46°46' W 092°06'.

Length 27 m; draft 4 m.

Type: Other ship. MMSI: 366947250.

Date/timePositionNaut miles runAvg speedWind from/ knotsBaromVisibWave heightAir tempDewpointWater temp
2018-Jun-24 09:00N 46°46' W 092°06'0 0.0
2018-Jun-24 08:29N 46°46' W 092°06'0 0.0
2018-Jun-24 08:00N 46°46' W 092°06'0 0.0
2018-Jun-24 07:30N 46°46' W 092°06'0 0.0
2018-Jun-24 07:00N 46°46' W 092°06'0 0.0
2018-Jun-24 06:30N 46°46' W 092°06'0 0.0
2018-Jun-24 06:00N 46°46' W 092°06'0 0.0
2018-Jun-24 05:30N 46°46' W 092°06'0 0.0
2018-Jun-24 04:59N 46°46' W 092°06'0 0.0
2018-Jun-24 04:30N 46°46' W 092°06'0 0.0
2018-Jun-24 04:00N 46°46' W 092°06'0 0.0
2018-Jun-24 03:30N 46°46' W 092°06'0 0.0
2018-Jun-24 03:00N 46°46' W 092°06'0 0.0
2018-Jun-24 02:31N 46°46' W 092°06'0 0.0
2018-Jun-24 02:00N 46°46' W 092°06'0 0.0
2018-Jun-24 01:30N 46°46' W 092°06'0 0.0
2018-Jun-24 01:00N 46°46' W 092°06'0 0.0
2018-Jun-24 00:30N 46°46' W 092°06'0 0.0
2018-Jun-24 00:00N 46°46' W 092°06'0 0.0
2018-Jun-23 23:30N 46°46' W 092°06'0 0.0
2018-Jun-23 23:00N 46°46' W 092°06'0 0.0
2018-Jun-23 22:30N 46°46' W 092°06'0 0.0
2018-Jun-23 22:00N 46°46' W 092°06'0 0.0
2018-Jun-23 21:30N 46°46' W 092°06'0 0.0
2018-Jun-23 21:00N 46°46' W 092°06'0 0.0
2018-Jun-23 20:30N 46°46' W 092°06'0 0.0
2018-Jun-23 20:00N 46°46' W 092°06'0 0.0
2018-Jun-23 19:30N 46°46' W 092°06'0 0.0
2018-Jun-23 19:00N 46°46' W 092°06'0 0.0
2018-Jun-23 18:30N 46°46' W 092°06'0 0.0
2018-Jun-23 18:00N 46°46' W 092°06'0 0.0
2018-Jun-23 17:30N 46°46' W 092°06'0 0.0
2018-Jun-23 17:00N 46°46' W 092°06'0 0.0
2018-Jun-23 16:30N 46°46' W 092°06'0 0.0
2018-Jun-23 16:00N 46°46' W 092°06'0 0.0
2018-Jun-23 15:30N 46°46' W 092°06'0 0.0
2018-Jun-23 15:00N 46°46' W 092°06'0 0.0
2018-Jun-23 14:30N 46°46' W 092°06'0 0.0
2018-Jun-23 14:00N 46°46' W 092°06'0 0.0
2018-Jun-23 13:30N 46°46' W 092°06'0 0.0
2018-Jun-23 13:00N 46°46' W 092°06'0 0.0
2018-Jun-23 12:30N 46°46' W 092°06'0 0.0
2018-Jun-23 12:00N 46°46' W 092°06'0 0.0
2018-Jun-23 11:30N 46°46' W 092°06'0 0.0
2018-Jun-23 11:00N 46°46' W 092°06'0 0.0
2018-Jun-23 10:29N 46°46' W 092°06'0 0.0
2018-Jun-23 10:00N 46°46' W 092°06'0 0.0
2018-Jun-23 09:30N 46°46' W 092°06'0 0.0
2018-Jun-23 09:00N 46°46' W 092°06'0 0.0
2018-Jun-23 08:30N 46°46' W 092°06'0 0.0
2018-Jun-23 08:01N 46°46' W 092°06'0 0.0
2018-Jun-23 07:30N 46°46' W 092°06'0 0.0
2018-Jun-23 07:00N 46°46' W 092°06'0 0.0
2018-Jun-23 06:30N 46°46' W 092°06'0 0.0
2018-Jun-23 06:01N 46°46' W 092°06'0 0.0
2018-Jun-23 05:30N 46°46' W 092°06'0 0.0
2018-Jun-23 05:00N 46°46' W 092°06'0 0.0
2018-Jun-23 04:30N 46°46' W 092°06'0 0.0
2018-Jun-23 04:01N 46°46' W 092°06'0 0.0
2018-Jun-23 03:31N 46°46' W 092°06'0 0.0
2018-Jun-23 03:00N 46°46' W 092°06'0 0.0
2018-Jun-23 02:30N 46°46' W 092°06'0 0.0
2018-Jun-23 02:00N 46°46' W 092°06'0 0.0
2018-Jun-23 01:30N 46°46' W 092°06'0 0.0
2018-Jun-23 01:00N 46°46' W 092°06'0 0.0
2018-Jun-23 00:31N 46°46' W 092°06'0 0.0
2018-Jun-23 00:00N 46°46' W 092°06'0 0.0
2018-Jun-22 23:30N 46°46' W 092°06'0 0.0
2018-Jun-22 23:00N 46°46' W 092°06'0 0.0
2018-Jun-22 22:30N 46°46' W 092°06'0 0.0
2018-Jun-22 22:00N 46°46' W 092°06'0 0.0
2018-Jun-22 21:31N 46°46' W 092°06'0 0.7
2018-Jun-22 21:00N 46°47' W 092°05'5 9.1
2018-Jun-22 20:30N 46°49' W 091°60'3 6.9
2018-Jun-22 20:00N 46°51' W 091°55'2 4.0
2018-Jun-22 19:29N 46°50' W 091°58'2 4.9
2018-Jun-22 19:00N 46°49' W 092°01'3 6.5
2018-Jun-22 18:30N 46°47' W 092°05'1 1.6
2018-Jun-22 18:00N 46°47' W 092°06'0 0.0
2018-Jun-22 17:30N 46°47' W 092°06'1 2.9
2018-Jun-22 17:01N 46°47' W 092°04'5 9.2
2018-Jun-22 16:30N 46°50' W 091°58'2 4.7
2018-Jun-22 16:00N 46°51' W 091°55'3 6.1
2018-Jun-22 15:30N 46°50' W 091°59'1 2.9
2018-Jun-22 15:00N 46°49' W 092°01'4 7.5
2018-Jun-22 14:30N 46°47' W 092°05'0 0.6
2018-Jun-22 14:00N 46°46' W 092°06'0 0.0
2018-Jun-22 13:30N 46°46' W 092°06'0 0.0
2018-Jun-22 13:00N 46°46' W 092°06'0 0.0
2018-Jun-22 12:27N 46°46' W 092°06'0 0.0
2018-Jun-22 12:00N 46°46' W 092°06'0 0.0
2018-Jun-22 11:30N 46°46' W 092°06'0 0.0
2018-Jun-22 10:57N 46°46' W 092°06'0 0.0
2018-Jun-22 10:24N 46°46' W 092°06'0 0.0
2018-Jun-22 10:00N 46°46' W 092°06'0 0.0
2018-Jun-22 09:30N 46°46' W 092°06'0 0.0
2018-Jun-22 09:00N 46°46' W 092°06'0 0.0
2018-Jun-22 08:24N 46°46' W 092°06'0 0.0
2018-Jun-22 08:00N 46°46' W 092°06'0 0.0
2018-Jun-22 07:27N 46°46' W 092°06'0 0.0
2018-Jun-22 06:48N 46°46' W 092°06'0 0.0
2018-Jun-22 06:30N 46°46' W 092°06'0 0.0
2018-Jun-22 06:00N 46°46' W 092°06'0 0.0
2018-Jun-22 05:30N 46°46' W 092°06'0 0.0
2018-Jun-22 05:00N 46°46' W 092°06'0 0.0
2018-Jun-22 04:30N 46°46' W 092°06'0 0.0
2018-Jun-22 04:00N 46°46' W 092°06'0 0.0
2018-Jun-22 03:27N 46°46' W 092°06'0 0.0
2018-Jun-22 03:00N 46°46' W 092°06'0 0.0
2018-Jun-22 02:30N 46°46' W 092°06'0 0.0
2018-Jun-22 02:00N 46°46' W 092°06'0 0.0
2018-Jun-22 01:30N 46°46' W 092°06'0 0.0
2018-Jun-22 01:00N 46°46' W 092°06'0 0.0
2018-Jun-22 00:30N 46°46' W 092°06'0 0.0
2018-Jun-22 00:00N 46°46' W 092°06'0 0.0
2018-Jun-21 23:30N 46°46' W 092°06'0 0.0
2018-Jun-21 23:00N 46°46' W 092°06'0 0.0
2018-Jun-21 22:30N 46°46' W 092°06'0 0.0
2018-Jun-21 22:00N 46°46' W 092°06'0 0.0
2018-Jun-21 21:30N 46°46' W 092°06'0 0.0
2018-Jun-21 21:00N 46°46' W 092°06'0 0.0
2018-Jun-21 20:30N 46°46' W 092°06'0 0.0
2018-Jun-21 20:00N 46°46' W 092°06'0 0.0
2018-Jun-21 19:30N 46°46' W 092°06'0 0.0
2018-Jun-21 18:57N 46°46' W 092°06'0 0.0
2018-Jun-21 18:27N 46°46' W 092°06'0 0.0
2018-Jun-21 18:00N 46°46' W 092°06'0 0.0
2018-Jun-21 17:30N 46°46' W 092°06'0 0.0
2018-Jun-21 17:00N 46°46' W 092°06'0 0.0
2018-Jun-21 16:30N 46°46' W 092°06'0 0.0
2018-Jun-21 16:00N 46°46' W 092°06'0 0.0
2018-Jun-21 15:30N 46°46' W 092°06'0 0.0
2018-Jun-21 14:57N 46°46' W 092°06'0 0.0
2018-Jun-21 14:30N 46°46' W 092°06'0 0.0
2018-Jun-21 14:00N 46°46' W 092°06'0 0.0
2018-Jun-21 13:30N 46°46' W 092°06'0 0.0
2018-Jun-21 13:00N 46°46' W 092°06'0 0.0
2018-Jun-21 12:30N 46°46' W 092°06'0 0.0
2018-Jun-21 12:00N 46°46' W 092°06'0 0.0
2018-Jun-21 11:30N 46°46' W 092°06'0 0.0
2018-Jun-21 11:00N 46°46' W 092°06'0 0.0
2018-Jun-21 10:30N 46°46' W 092°06'0 0.0
2018-Jun-21 10:00N 46°46' W 092°06'0 0.0
2018-Jun-21 09:30N 46°46' W 092°06'0 0.0
2018-Jun-21 08:48N 46°46' W 092°06'0 0.0
2018-Jun-21 08:30N 46°46' W 092°06'0 0.0
2018-Jun-21 08:00N 46°46' W 092°06'0 0.0
2018-Jun-21 07:30N 46°46' W 092°06'0 0.0
2018-Jun-21 06:57N 46°46' W 092°06'0 0.0
2018-Jun-21 06:30N 46°46' W 092°06'0 0.0
2018-Jun-21 06:00N 46°46' W 092°06'0 0.0
2018-Jun-21 05:30N 46°46' W 092°06'0 0.0
2018-Jun-21 05:00N 46°46' W 092°06'0 0.0
2018-Jun-21 04:30N 46°46' W 092°06'0 0.0
2018-Jun-21 04:00N 46°46' W 092°06'0 0.0
2018-Jun-21 03:30N 46°46' W 092°06'0 0.0
2018-Jun-21 02:57N 46°46' W 092°06'0 0.0
2018-Jun-21 02:27N 46°46' W 092°06'0 0.0
2018-Jun-21 01:57N 46°46' W 092°06'0 0.0
2018-Jun-21 01:27N 46°46' W 092°06'0 0.0
2018-Jun-21 00:57N 46°46' W 092°06'0 0.0
2018-Jun-21 00:30N 46°46' W 092°06'0 0.0
2018-Jun-20 23:57N 46°46' W 092°06'0 0.0
2018-Jun-20 23:30N 46°46' W 092°06'0 0.0
2018-Jun-20 23:00N 46°46' W 092°06'0 0.0
2018-Jun-20 22:30N 46°46' W 092°06'0 0.0
2018-Jun-20 22:00N 46°46' W 092°06'0 0.0
2018-Jun-20 21:30N 46°46' W 092°06'0 0.0
2018-Jun-20 19:36N 46°46' W 092°06'0 0.0
2018-Jun-20 19:30N 46°46' W 092°06'0 0.0
2018-Jun-20 19:00N 46°46' W 092°06'0 0.0
2018-Jun-20 18:30N 46°46' W 092°06'0 0.0
2018-Jun-20 18:00N 46°46' W 092°06'0 0.0
2018-Jun-20 17:30N 46°46' W 092°06'0 0.0
2018-Jun-20 17:00N 46°46' W 092°06'0 0.0
2018-Jun-20 16:30N 46°46' W 092°06'0 0.0
2018-Jun-20 16:00N 46°46' W 092°06'0 0.0
2018-Jun-20 15:30N 46°46' W 092°06'0 0.0
2018-Jun-20 15:00N 46°46' W 092°06'0 0.0
2018-Jun-20 14:30N 46°46' W 092°06'0 0.0
2018-Jun-20 14:00N 46°46' W 092°06'0 0.0
2018-Jun-20 13:27N 46°46' W 092°06'0 0.0
2018-Jun-20 13:00N 46°46' W 092°06'0 0.0
2018-Jun-20 12:30N 46°46' W 092°06'0 0.0
2018-Jun-20 12:00N 46°46' W 092°06'0 0.0
2018-Jun-20 11:30N 46°46' W 092°06'0 0.0
2018-Jun-20 11:00N 46°46' W 092°06'0 0.0
2018-Jun-20 10:30N 46°46' W 092°06'0 0.0
2018-Jun-20 10:00N 46°46' W 092°06'0 0.0
2018-Jun-20 09:30N 46°46' W 092°06'0 0.0
2018-Jun-20 09:00N 46°46' W 092°06'0 0.0
2018-Jun-20 08:30N 46°46' W 092°06'0 0.0
2018-Jun-20 08:00N 46°46' W 092°06'0 0.0
2018-Jun-20 07:30N 46°46' W 092°06'0 0.0
2018-Jun-20 06:54N 46°46' W 092°06'0 0.0
2018-Jun-20 06:30N 46°46' W 092°06'0 0.0
2018-Jun-20 06:00N 46°46' W 092°06'0 0.0
2018-Jun-20 05:30N 46°46' W 092°06'0 0.0
2018-Jun-20 05:00N 46°46' W 092°06'0 0.0
2018-Jun-20 04:27N 46°46' W 092°06'0 0.0
2018-Jun-20 04:00N 46°46' W 092°06'0 0.0
2018-Jun-20 03:30N 46°46' W 092°06'0 0.0
2018-Jun-20 03:00N 46°46' W 092°06'0 0.0
2018-Jun-20 02:30N 46°46' W 092°06'0 0.0
2018-Jun-20 02:00N 46°46' W 092°06'0 0.0
2018-Jun-20 01:30N 46°46' W 092°06'0 0.0
2018-Jun-20 01:00N 46°46' W 092°06'0 0.0
2018-Jun-20 00:27N 46°46' W 092°06'0 0.0
2018-Jun-20 00:00N 46°46' W 092°06'0 0.0
2018-Jun-19 23:27N 46°46' W 092°06'0 0.0
2018-Jun-19 23:00N 46°46' W 092°06'0 0.0
2018-Jun-19 22:30N 46°46' W 092°06'0 0.0
2018-Jun-19 22:00N 46°46' W 092°06'0 0.0
2018-Jun-19 21:30N 46°46' W 092°06'0 0.0
2018-Jun-19 21:00N 46°46' W 092°06'0 0.0
2018-Jun-19 20:30N 46°46' W 092°06'0 0.0
2018-Jun-19 20:00N 46°46' W 092°06'0 0.0
2018-Jun-19 19:30N 46°46' W 092°06'0 0.0
2018-Jun-19 18:59N 46°46' W 092°06'0 0.0
2018-Jun-19 18:29N 46°46' W 092°06'0 0.0
2018-Jun-19 17:59N 46°46' W 092°06'0 0.0
2018-Jun-19 17:30N 46°46' W 092°06'0 0.0
2018-Jun-19 17:00N 46°46' W 092°06'0 0.0
2018-Jun-19 16:30N 46°46' W 092°06'0 0.0
2018-Jun-19 16:00N 46°46' W 092°06'0 0.0
2018-Jun-19 15:29N 46°46' W 092°06'0 0.0
2018-Jun-19 15:00N 46°46' W 092°06'0 0.0
2018-Jun-19 14:30N 46°46' W 092°06'0 0.0
2018-Jun-19 13:59N 46°46' W 092°06'0 0.0
2018-Jun-19 13:30N 46°46' W 092°06'0 0.0
2018-Jun-19 12:59N 46°46' W 092°06'0 0.0
2018-Jun-19 12:30N 46°46' W 092°06'0 0.0
2018-Jun-19 12:00N 46°46' W 092°06'0 0.0
2018-Jun-19 11:30N 46°46' W 092°06'0 0.0
2018-Jun-19 10:57N 46°46' W 092°06'0 0.0
2018-Jun-19 10:29N 46°46' W 092°06'0 0.0
2018-Jun-19 09:59N 46°46' W 092°06'0 0.0
2018-Jun-19 09:30N 46°46' W 092°06'0 0.0
2018-Jun-19 09:00N 46°46' W 092°06'0 0.0
2018-Jun-19 08:30N 46°46' W 092°06'0 0.0
2018-Jun-19 07:56N 46°46' W 092°06'0 0.0
2018-Jun-19 07:30N 46°46' W 092°06'0 0.0
2018-Jun-19 07:00N 46°46' W 092°06'0 0.0
2018-Jun-19 06:30N 46°46' W 092°06'0 0.0
2018-Jun-19 05:59N 46°46' W 092°06'0 0.0
2018-Jun-19 05:30N 46°46' W 092°06'0 0.0
2018-Jun-19 04:59N 46°46' W 092°06'0 0.0
2018-Jun-19 04:29N 46°46' W 092°06'0 0.0
2018-Jun-19 03:59N 46°46' W 092°06'0 0.0
2018-Jun-19 03:29N 46°46' W 092°06'0 0.0
2018-Jun-19 03:00N 46°46' W 092°06'0 0.0
2018-Jun-19 02:29N 46°46' W 092°06'0 0.0
2018-Jun-19 01:59N 46°46' W 092°06'0 0.0
2018-Jun-19 01:29N 46°46' W 092°06'0 0.0
2018-Jun-19 01:00N 46°46' W 092°06'0 0.0
2018-Jun-19 00:29N 46°46' W 092°06'0 0.0
2018-Jun-18 23:59N 46°46' W 092°06'0 0.0
2018-Jun-18 23:29N 46°46' W 092°06'0 0.0
2018-Jun-18 22:59N 46°46' W 092°06'0 0.0
2018-Jun-18 22:26N 46°46' W 092°06'0 0.0
2018-Jun-18 21:59N 46°46' W 092°06'0 0.0
2018-Jun-18 21:29N 46°46' W 092°06'0 0.0
2018-Jun-18 20:59N 46°46' W 092°06'0 0.0
2018-Jun-18 20:29N 46°46' W 092°06'0 0.0
2018-Jun-18 19:59N 46°46' W 092°06'0 0.0
2018-Jun-18 19:29N 46°46' W 092°06'0 0.0
2018-Jun-18 18:59N 46°46' W 092°06'0 0.0
2018-Jun-18 18:23N 46°46' W 092°06'0 0.0
2018-Jun-18 17:59N 46°46' W 092°06'0 0.0
2018-Jun-18 17:29N 46°46' W 092°06'0 0.0
2018-Jun-18 16:56N 46°46' W 092°06'0 0.0
2018-Jun-18 16:26N 46°46' W 092°06'0 0.0
2018-Jun-18 15:59N 46°46' W 092°06'0 0.0
2018-Jun-18 15:29N 46°46' W 092°06'0 0.0
2018-Jun-18 14:59N 46°46' W 092°06'0 0.0
2018-Jun-18 14:29N 46°46' W 092°06'0 0.0
2018-Jun-18 13:59N 46°46' W 092°06'0 0.0
2018-Jun-18 13:29N 46°46' W 092°06'0 0.0
2018-Jun-18 12:59N 46°46' W 092°06'0 0.0
2018-Jun-18 12:29N 46°46' W 092°06'0 0.0
2018-Jun-18 11:59N 46°46' W 092°06'0 0.0
2018-Jun-18 11:29N 46°46' W 092°06'0 0.0
2018-Jun-18 10:59N 46°46' W 092°06'0 0.0
2018-Jun-18 10:29N 46°46' W 092°06'0 0.0
2018-Jun-18 09:59N 46°46' W 092°06'0 0.0
2018-Jun-18 09:29N 46°46' W 092°06'0 0.0
2018-Jun-18 08:59N 46°46' W 092°06'0 0.0
2018-Jun-18 08:29N 46°46' W 092°06'0 0.0
2018-Jun-18 07:59N 46°46' W 092°06'0 0.0
2018-Jun-18 07:29N 46°46' W 092°06'0 0.0
2018-Jun-18 06:59N 46°46' W 092°06'0 0.0
2018-Jun-18 06:29N 46°46' W 092°06'0 0.0
2018-Jun-18 05:59N 46°46' W 092°06'0 0.0
2018-Jun-18 05:29N 46°46' W 092°06'0 0.0
2018-Jun-18 04:56N 46°46' W 092°06'0 0.0
2018-Jun-18 04:29N 46°46' W 092°06'0 0.0
2018-Jun-18 03:56N 46°46' W 092°06'0 0.0
2018-Jun-18 03:29N 46°46' W 092°06'0 0.0
2018-Jun-18 02:59N 46°46' W 092°06'0 0.0
2018-Jun-18 02:29N 46°46' W 092°06'0 0.0
2018-Jun-18 01:59N 46°46' W 092°06'0 0.0
2018-Jun-18 01:29N 46°46' W 092°06'0 0.0
2018-Jun-18 00:59N 46°46' W 092°06'0 0.0
2018-Jun-18 00:29N 46°46' W 092°06'0 0.0
2018-Jun-17 23:59N 46°46' W 092°06'0 0.0
2018-Jun-17 23:29N 46°46' W 092°06'0 0.0
2018-Jun-17 22:59N 46°46' W 092°06'0 0.0
2018-Jun-17 22:29N 46°46' W 092°06'0 0.0
2018-Jun-17 21:59N 46°46' W 092°06'0 0.0
2018-Jun-17 21:29N 46°46' W 092°06'0 0.0
2018-Jun-17 20:59N 46°46' W 092°06'0 0.0
2018-Jun-17 20:29N 46°46' W 092°06'0 0.0
2018-Jun-17 19:59N 46°46' W 092°06'0 0.0
2018-Jun-17 19:29N 46°46' W 092°06'0 0.0
2018-Jun-17 18:59N 46°46' W 092°06'0 0.0
2018-Jun-17 18:29N 46°46' W 092°06'0 0.0
2018-Jun-17 17:59N 46°46' W 092°06'0 0.0
2018-Jun-17 17:29N 46°46' W 092°06'0 0.0
2018-Jun-17 16:59N 46°46' W 092°06'0 0.0
2018-Jun-17 16:29N 46°46' W 092°06'0 0.0
2018-Jun-17 15:59N 46°46' W 092°06'0 0.0
2018-Jun-17 15:29N 46°46' W 092°06'0 0.0
2018-Jun-17 14:59N 46°46' W 092°06'0 0.0
2018-Jun-17 14:29N 46°46' W 092°06'0 0.0
2018-Jun-17 13:59N 46°46' W 092°06'0 0.0
2018-Jun-17 13:29N 46°46' W 092°06'0 0.0
2018-Jun-17 12:59N 46°46' W 092°06'0 0.0
2018-Jun-17 12:26N 46°46' W 092°06'0 0.0
2018-Jun-17 11:59N 46°46' W 092°06'0 0.0
2018-Jun-17 11:29N 46°46' W 092°06'0 0.0
2018-Jun-17 10:59N 46°46' W 092°06'0 0.0
2018-Jun-17 10:29N 46°46' W 092°06'0 0.0
2018-Jun-17 09:59N 46°46' W 092°06'0 0.0
2018-Jun-17 09:29N 46°46' W 092°06'0 0.0
2018-Jun-17 08:59N 46°46' W 092°06'0 0.0
2018-Jun-17 08:29N 46°46' W 092°06'0 0.0
2018-Jun-17 07:59N 46°46' W 092°06'0 0.0
2018-Jun-17 07:29N 46°46' W 092°06'0 0.0
2018-Jun-17 06:59N 46°46' W 092°06'0 0.0
2018-Jun-17 06:29N 46°46' W 092°06'0 0.0
2018-Jun-17 05:59N 46°46' W 092°06'0 0.0
2018-Jun-17 05:29N 46°46' W 092°06'0 0.0
2018-Jun-17 04:59N 46°46' W 092°06'0 0.0
2018-Jun-17 04:29N 46°46' W 092°06'0 0.0
2018-Jun-17 03:59N 46°46' W 092°06'0 0.0
2018-Jun-17 03:29N 46°46' W 092°06'0 0.0
2018-Jun-17 02:59N 46°46' W 092°06'0 0.0
2018-Jun-17 02:29N 46°46' W 092°06'0 0.0
2018-Jun-17 01:59N 46°46' W 092°06'0 0.0
2018-Jun-17 01:29N 46°46' W 092°06'0 0.0
2018-Jun-17 00:59N 46°46' W 092°06'0 0.0
2018-Jun-17 00:29N 46°46' W 092°06'0 0.0
2018-Jun-16 23:59N 46°46' W 092°06'0 0.0
2018-Jun-16 23:29N 46°46' W 092°06'0 0.0
2018-Jun-16 22:59N 46°46' W 092°06'0 0.0
2018-Jun-16 22:26N 46°46' W 092°06'0 0.0
2018-Jun-16 21:59N 46°46' W 092°06'0 0.0
2018-Jun-16 21:29N 46°46' W 092°06'0 0.0
2018-Jun-16 20:59N 46°46' W 092°06'0 0.0
2018-Jun-16 20:29N 46°46' W 092°06'0 0.0
2018-Jun-16 19:56N 46°46' W 092°06'0 0.0
2018-Jun-16 19:29N 46°46' W 092°06'0 0.0
2018-Jun-16 18:59N 46°46' W 092°06'0 0.0
2018-Jun-16 18:29N 46°46' W 092°06'0 0.0
2018-Jun-16 17:59N 46°46' W 092°06'0 0.0
2018-Jun-16 17:26N 46°46' W 092°06'0 0.0
2018-Jun-16 16:59N 46°46' W 092°06'0 0.0
2018-Jun-16 16:29N 46°46' W 092°06'0 0.0
2018-Jun-16 15:59N 46°46' W 092°06'0 0.0
2018-Jun-16 15:29N 46°46' W 092°06'0 0.0
2018-Jun-16 14:59N 46°46' W 092°06'0 0.0
2018-Jun-16 14:29N 46°46' W 092°06'0 0.0
2018-Jun-16 13:59N 46°46' W 092°06'0 0.0
2018-Jun-16 13:29N 46°46' W 092°06'0 0.0
2018-Jun-16 12:59N 46°46' W 092°06'0 0.0
2018-Jun-16 12:29N 46°46' W 092°06'0 0.0
2018-Jun-16 11:59N 46°46' W 092°06'0 0.0
2018-Jun-16 11:29N 46°46' W 092°06'0 0.0
2018-Jun-16 10:59N 46°46' W 092°06'0 0.0
2018-Jun-16 10:29N 46°46' W 092°06'0 0.0
2018-Jun-16 09:59N 46°46' W 092°06'0 0.0
2018-Jun-16 09:29N 46°46' W 092°06'0 0.0
2018-Jun-16 08:56N 46°46' W 092°06'0 0.0
2018-Jun-16 08:29N 46°46' W 092°06'0 0.0
2018-Jun-16 07:53N 46°46' W 092°06'0 0.0
2018-Jun-16 07:26N 46°46' W 092°06'0 0.0
2018-Jun-16 06:59N 46°46' W 092°06'0 0.0
2018-Jun-16 06:29N 46°46' W 092°06'0 0.0
2018-Jun-16 05:59N 46°46' W 092°06'0 0.0
2018-Jun-16 05:29N 46°46' W 092°06'0 0.0
2018-Jun-16 04:59N 46°46' W 092°06'0 0.0
2018-Jun-16 04:29N 46°46' W 092°06'0 0.0
2018-Jun-16 03:59N 46°46' W 092°06'0 0.0
2018-Jun-16 03:29N 46°46' W 092°06'0 0.0
2018-Jun-16 02:59N 46°46' W 092°06'0 0.0
2018-Jun-16 02:29N 46°46' W 092°06'0 0.0
2018-Jun-16 01:59N 46°46' W 092°06'0 0.0
2018-Jun-16 01:29N 46°46' W 092°06'0 0.0
2018-Jun-16 00:59N 46°46' W 092°06'0 0.0
2018-Jun-16 00:29N 46°46' W 092°06'0 0.0
2018-Jun-15 23:59N 46°46' W 092°06'0 0.0
2018-Jun-15 23:29N 46°46' W 092°06'0 0.0
2018-Jun-15 22:59N 46°46' W 092°06'0 0.0
2018-Jun-15 22:29N 46°46' W 092°06'0 0.0
2018-Jun-15 21:59N 46°46' W 092°06'0 0.0
2018-Jun-15 21:29N 46°46' W 092°06'0 0.0
2018-Jun-15 20:59N 46°46' W 092°06'0 0.0
2018-Jun-15 20:29N 46°46' W 092°06'0 0.0
2018-Jun-15 19:47N 46°46' W 092°06'0 0.0
2018-Jun-15 19:29N 46°46' W 092°06'0 0.0
2018-Jun-15 18:59N 46°46' W 092°06'0 0.0
2018-Jun-15 18:29N 46°46' W 092°06'0 0.0
2018-Jun-15 17:59N 46°46' W 092°06'0 0.0
2018-Jun-15 17:29N 46°46' W 092°06'0 0.0
2018-Jun-15 16:59N 46°46' W 092°06'0 0.0
2018-Jun-15 16:29N 46°46' W 092°06'0 0.0
2018-Jun-15 15:59N 46°46' W 092°06'0 0.0
2018-Jun-15 15:29N 46°46' W 092°06'0 0.0
2018-Jun-15 14:59N 46°46' W 092°06'0 0.0
2018-Jun-15 14:29N 46°46' W 092°06'0 0.0
2018-Jun-15 13:59N 46°46' W 092°06'0 0.0
2018-Jun-15 13:29N 46°46' W 092°06'0 0.0
2018-Jun-15 12:59N 46°46' W 092°06'0 0.0
2018-Jun-15 12:29N 46°46' W 092°06'0 0.0
2018-Jun-15 11:59N 46°46' W 092°06'0 0.0
2018-Jun-15 11:29N 46°46' W 092°06'0 0.0
2018-Jun-15 10:59N 46°46' W 092°06'0 0.0
2018-Jun-15 10:29N 46°46' W 092°06'0 0.0
2018-Jun-15 09:59N 46°46' W 092°06'0 0.0
2018-Jun-15 09:29N 46°46' W 092°06'0 0.0
2018-Jun-15 08:59N 46°46' W 092°06'0 0.0
2018-Jun-15 08:29N 46°46' W 092°06'0 0.0
2018-Jun-15 07:59N 46°46' W 092°06'0 0.0
2018-Jun-15 07:29N 46°46' W 092°06'0 0.0
2018-Jun-15 06:59N 46°46' W 092°06'0 0.0
2018-Jun-15 06:23N 46°46' W 092°06'0 0.0
2018-Jun-15 05:59N 46°46' W 092°06'0 0.0
2018-Jun-15 05:29N 46°46' W 092°06'0 0.0
2018-Jun-15 04:59N 46°46' W 092°06'0 0.0
2018-Jun-15 04:29N 46°46' W 092°06'0 0.0
2018-Jun-15 03:59N 46°46' W 092°06'0 0.0
2018-Jun-15 03:29N 46°46' W 092°06'0 0.0
2018-Jun-15 02:59N 46°46' W 092°06'0 0.0
2018-Jun-15 02:29N 46°46' W 092°06'0 0.0
2018-Jun-15 01:59N 46°46' W 092°06'0 0.0
2018-Jun-15 01:29N 46°46' W 092°06'0 0.0
2018-Jun-15 00:59N 46°46' W 092°06'0 0.0
2018-Jun-15 00:29N 46°46' W 092°06'0 0.0
2018-Jun-14 23:59N 46°46' W 092°06'0 0.0
2018-Jun-14 23:29N 46°46' W 092°06'0 0.0
2018-Jun-14 22:59N 46°46' W 092°06'0 0.0
2018-Jun-14 22:26N 46°46' W 092°06'0 0.0
2018-Jun-14 21:59N 46°46' W 092°06'0 0.0
2018-Jun-14 21:29N 46°46' W 092°06'0 0.0
2018-Jun-14 20:59N 46°46' W 092°06'0 0.0
2018-Jun-14 20:29N 46°46' W 092°06'0 0.0
2018-Jun-14 19:56N 46°46' W 092°06'0 0.0
2018-Jun-14 19:29N 46°46' W 092°06'0 0.0
2018-Jun-14 18:59N 46°46' W 092°06'0 0.0
2018-Jun-14 18:29N 46°46' W 092°06'0 0.0
2018-Jun-14 17:59N 46°46' W 092°06'0 0.0
2018-Jun-14 17:29N 46°46' W 092°06'0 0.0
2018-Jun-14 16:59N 46°46' W 092°06'0 0.0
2018-Jun-14 16:29N 46°46' W 092°06'0 0.0
2018-Jun-14 15:59N 46°46' W 092°06'0 0.0
2018-Jun-14 15:29N 46°46' W 092°06'0 0.0
2018-Jun-14 14:59N 46°46' W 092°06'0 0.0
2018-Jun-14 14:29N 46°46' W 092°06'0 0.0
2018-Jun-14 13:59N 46°46' W 092°06'0 0.0
2018-Jun-14 13:29N 46°46' W 092°06'0 0.0
2018-Jun-14 12:59N 46°46' W 092°06'0 0.0
2018-Jun-14 12:29N 46°46' W 092°06'0 0.0
2018-Jun-14 11:59N 46°46' W 092°06'0 0.0
2018-Jun-14 11:29N 46°46' W 092°06'0 0.0
2018-Jun-14 10:59N 46°46' W 092°06'0 0.0
2018-Jun-14 10:29N 46°46' W 092°06'0 0.0
2018-Jun-14 09:59N 46°46' W 092°06'0 0.0
2018-Jun-14 09:29N 46°46' W 092°06'  
Track history (hours):
 
Tides and Currents Weather Stations Pressure Air Temp Water Temp Dewpoint Dewpoint Depression Visibility Wind Speed Wind Dir Waves Ship Positions

Oceanographic research ship Blue Heron (USA)

Detailed information on ship capabilities available from University of Delaware's Ocean Information Center.

Owner: REGENTS OF THE UNIVERSITY OF MINNESOTA, DULUTH, MN. More information available from US FCC via Universal Licensing System and Coast Guard Vessel Documentation Center.

Last reported at 2018-Jun-24 09:00 UTC. Time now 2018-Jun-24 09:17 UTC.
Position N 46°46' W 092°06'.

Length 27 m; draft 4 m.

Type: Other ship. MMSI: 366947250.

Date/timePositionNaut miles runAvg speedWind from/ knotsBaromVisibWave heightAir tempDewpointWater temp
2018-Jun-24 09:00N 46°46' W 092°06'0 0.0
2018-Jun-24 08:29N 46°46' W 092°06'0 0.0
2018-Jun-24 08:00N 46°46' W 092°06'0 0.0
2018-Jun-24 07:30N 46°46' W 092°06'0 0.0
2018-Jun-24 07:00N 46°46' W 092°06'0 0.0
2018-Jun-24 06:30N 46°46' W 092°06'0 0.0
2018-Jun-24 06:00N 46°46' W 092°06'0 0.0
2018-Jun-24 05:30N 46°46' W 092°06'0 0.0
2018-Jun-24 04:59N 46°46' W 092°06'0 0.0
2018-Jun-24 04:30N 46°46' W 092°06'0 0.0
2018-Jun-24 04:00N 46°46' W 092°06'0 0.0
2018-Jun-24 03:30N 46°46' W 092°06'0 0.0
2018-Jun-24 03:00N 46°46' W 092°06'0 0.0
2018-Jun-24 02:31N 46°46' W 092°06'0 0.0
2018-Jun-24 02:00N 46°46' W 092°06'0 0.0
2018-Jun-24 01:30N 46°46' W 092°06'0 0.0
2018-Jun-24 01:00N 46°46' W 092°06'0 0.0
2018-Jun-24 00:30N 46°46' W 092°06'0 0.0
2018-Jun-24 00:00N 46°46' W 092°06'0 0.0
2018-Jun-23 23:30N 46°46' W 092°06'0 0.0
2018-Jun-23 23:00N 46°46' W 092°06'0 0.0
2018-Jun-23 22:30N 46°46' W 092°06'0 0.0
2018-Jun-23 22:00N 46°46' W 092°06'0 0.0
2018-Jun-23 21:30N 46°46' W 092°06'0 0.0
2018-Jun-23 21:00N 46°46' W 092°06'0 0.0
2018-Jun-23 20:30N 46°46' W 092°06'0 0.0
2018-Jun-23 20:00N 46°46' W 092°06'0 0.0
2018-Jun-23 19:30N 46°46' W 092°06'0 0.0
2018-Jun-23 19:00N 46°46' W 092°06'0 0.0
2018-Jun-23 18:30N 46°46' W 092°06'0 0.0
2018-Jun-23 18:00N 46°46' W 092°06'0 0.0
2018-Jun-23 17:30N 46°46' W 092°06'0 0.0
2018-Jun-23 17:00N 46°46' W 092°06'0 0.0
2018-Jun-23 16:30N 46°46' W 092°06'0 0.0
2018-Jun-23 16:00N 46°46' W 092°06'0 0.0
2018-Jun-23 15:30N 46°46' W 092°06'0 0.0
2018-Jun-23 15:00N 46°46' W 092°06'0 0.0
2018-Jun-23 14:30N 46°46' W 092°06'0 0.0
2018-Jun-23 14:00N 46°46' W 092°06'0 0.0
2018-Jun-23 13:30N 46°46' W 092°06'0 0.0
2018-Jun-23 13:00N 46°46' W 092°06'0 0.0
2018-Jun-23 12:30N 46°46' W 092°06'0 0.0
2018-Jun-23 12:00N 46°46' W 092°06'0 0.0
2018-Jun-23 11:30N 46°46' W 092°06'0 0.0
2018-Jun-23 11:00N 46°46' W 092°06'0 0.0
2018-Jun-23 10:29N 46°46' W 092°06'0 0.0
2018-Jun-23 10:00N 46°46' W 092°06'0 0.0
2018-Jun-23 09:30N 46°46' W 092°06'0 0.0
2018-Jun-23 09:00N 46°46' W 092°06'0 0.0
2018-Jun-23 08:30N 46°46' W 092°06'0 0.0
2018-Jun-23 08:01N 46°46' W 092°06'0 0.0
2018-Jun-23 07:30N 46°46' W 092°06'0 0.0
2018-Jun-23 07:00N 46°46' W 092°06'0 0.0
2018-Jun-23 06:30N 46°46' W 092°06'0 0.0
2018-Jun-23 06:01N 46°46' W 092°06'0 0.0
2018-Jun-23 05:30N 46°46' W 092°06'0 0.0
2018-Jun-23 05:00N 46°46' W 092°06'0 0.0
2018-Jun-23 04:30N 46°46' W 092°06'0 0.0
2018-Jun-23 04:01N 46°46' W 092°06'0 0.0
2018-Jun-23 03:31N 46°46' W 092°06'0 0.0
2018-Jun-23 03:00N 46°46' W 092°06'0 0.0
2018-Jun-23 02:30N 46°46' W 092°06'0 0.0
2018-Jun-23 02:00N 46°46' W 092°06'0 0.0
2018-Jun-23 01:30N 46°46' W 092°06'0 0.0
2018-Jun-23 01:00N 46°46' W 092°06'0 0.0
2018-Jun-23 00:31N 46°46' W 092°06'0 0.0
2018-Jun-23 00:00N 46°46' W 092°06'0 0.0
2018-Jun-22 23:30N 46°46' W 092°06'0 0.0
2018-Jun-22 23:00N 46°46' W 092°06'0 0.0
2018-Jun-22 22:30N 46°46' W 092°06'0 0.0
2018-Jun-22 22:00N 46°46' W 092°06'0 0.0
2018-Jun-22 21:31N 46°46' W 092°06'0 0.7
2018-Jun-22 21:00N 46°47' W 092°05'5 9.1
2018-Jun-22 20:30N 46°49' W 091°60'3 6.9
2018-Jun-22 20:00N 46°51' W 091°55'2 4.0
2018-Jun-22 19:29N 46°50' W 091°58'2 4.9
2018-Jun-22 19:00N 46°49' W 092°01'3 6.5
2018-Jun-22 18:30N 46°47' W 092°05'1 1.6
2018-Jun-22 18:00N 46°47' W 092°06'0 0.0
2018-Jun-22 17:30N 46°47' W 092°06'1 2.9
2018-Jun-22 17:01N 46°47' W 092°04'5 9.2
2018-Jun-22 16:30N 46°50' W 091°58'2 4.7
2018-Jun-22 16:00N 46°51' W 091°55'3 6.1
2018-Jun-22 15:30N 46°50' W 091°59'1 2.9
2018-Jun-22 15:00N 46°49' W 092°01'4 7.5
2018-Jun-22 14:30N 46°47' W 092°05'0 0.6
2018-Jun-22 14:00N 46°46' W 092°06'0 0.0
2018-Jun-22 13:30N 46°46' W 092°06'0 0.0
2018-Jun-22 13:00N 46°46' W 092°06'0 0.0
2018-Jun-22 12:27N 46°46' W 092°06'0 0.0
2018-Jun-22 12:00N 46°46' W 092°06'0 0.0
2018-Jun-22 11:30N 46°46' W 092°06'0 0.0
2018-Jun-22 10:57N 46°46' W 092°06'0 0.0
2018-Jun-22 10:24N 46°46' W 092°06'0 0.0
2018-Jun-22 10:00N 46°46' W 092°06'0 0.0
2018-Jun-22 09:30N 46°46' W 092°06'0 0.0
2018-Jun-22 09:00N 46°46' W 092°06'0 0.0
2018-Jun-22 08:24N 46°46' W 092°06'0 0.0
2018-Jun-22 08:00N 46°46' W 092°06'0 0.0
2018-Jun-22 07:27N 46°46' W 092°06'0 0.0
2018-Jun-22 06:48N 46°46' W 092°06'0 0.0
2018-Jun-22 06:30N 46°46' W 092°06'0 0.0
2018-Jun-22 06:00N 46°46' W 092°06'0 0.0
2018-Jun-22 05:30N 46°46' W 092°06'0 0.0
2018-Jun-22 05:00N 46°46' W 092°06'0 0.0
2018-Jun-22 04:30N 46°46' W 092°06'0 0.0
2018-Jun-22 04:00N 46°46' W 092°06'0 0.0
2018-Jun-22 03:27N 46°46' W 092°06'0 0.0
2018-Jun-22 03:00N 46°46' W 092°06'0 0.0
2018-Jun-22 02:30N 46°46' W 092°06'0 0.0
2018-Jun-22 02:00N 46°46' W 092°06'0 0.0
2018-Jun-22 01:30N 46°46' W 092°06'0 0.0
2018-Jun-22 01:00N 46°46' W 092°06'0 0.0
2018-Jun-22 00:30N 46°46' W 092°06'0 0.0
2018-Jun-22 00:00N 46°46' W 092°06'0 0.0
2018-Jun-21 23:30N 46°46' W 092°06'0 0.0
2018-Jun-21 23:00N 46°46' W 092°06'0 0.0
2018-Jun-21 22:30N 46°46' W 092°06'0 0.0
2018-Jun-21 22:00N 46°46' W 092°06'0 0.0
2018-Jun-21 21:30N 46°46' W 092°06'0 0.0
2018-Jun-21 21:00N 46°46' W 092°06'0 0.0
2018-Jun-21 20:30N 46°46' W 092°06'0 0.0
2018-Jun-21 20:00N 46°46' W 092°06'0 0.0
2018-Jun-21 19:30N 46°46' W 092°06'0 0.0
2018-Jun-21 18:57N 46°46' W 092°06'0 0.0
2018-Jun-21 18:27N 46°46' W 092°06'0 0.0
2018-Jun-21 18:00N 46°46' W 092°06'0 0.0
2018-Jun-21 17:30N 46°46' W 092°06'0 0.0
2018-Jun-21 17:00N 46°46' W 092°06'0 0.0
2018-Jun-21 16:30N 46°46' W 092°06'0 0.0
2018-Jun-21 16:00N 46°46' W 092°06'0 0.0
2018-Jun-21 15:30N 46°46' W 092°06'0 0.0
2018-Jun-21 14:57N 46°46' W 092°06'0 0.0
2018-Jun-21 14:30N 46°46' W 092°06'0 0.0
2018-Jun-21 14:00N 46°46' W 092°06'0 0.0
2018-Jun-21 13:30N 46°46' W 092°06'0 0.0
2018-Jun-21 13:00N 46°46' W 092°06'0 0.0
2018-Jun-21 12:30N 46°46' W 092°06'0 0.0
2018-Jun-21 12:00N 46°46' W 092°06'0 0.0
2018-Jun-21 11:30N 46°46' W 092°06'0 0.0
2018-Jun-21 11:00N 46°46' W 092°06'0 0.0
2018-Jun-21 10:30N 46°46' W 092°06'0 0.0
2018-Jun-21 10:00N 46°46' W 092°06'0 0.0
2018-Jun-21 09:30N 46°46' W 092°06'0 0.0
2018-Jun-21 08:48N 46°46' W 092°06'0 0.0
2018-Jun-21 08:30N 46°46' W 092°06'0 0.0
2018-Jun-21 08:00N 46°46' W 092°06'0 0.0
2018-Jun-21 07:30N 46°46' W 092°06'0 0.0
2018-Jun-21 06:57N 46°46' W 092°06'0 0.0
2018-Jun-21 06:30N 46°46' W 092°06'0 0.0
2018-Jun-21 06:00N 46°46' W 092°06'0 0.0
2018-Jun-21 05:30N 46°46' W 092°06'0 0.0
2018-Jun-21 05:00N 46°46' W 092°06'0 0.0
2018-Jun-21 04:30N 46°46' W 092°06'0 0.0
2018-Jun-21 04:00N 46°46' W 092°06'0 0.0
2018-Jun-21 03:30N 46°46' W 092°06'0 0.0
2018-Jun-21 02:57N 46°46' W 092°06'0 0.0
2018-Jun-21 02:27N 46°46' W 092°06'0 0.0
2018-Jun-21 01:57N 46°46' W 092°06'0 0.0
2018-Jun-21 01:27N 46°46' W 092°06'0 0.0
2018-Jun-21 00:57N 46°46' W 092°06'0 0.0
2018-Jun-21 00:30N 46°46' W 092°06'0 0.0
2018-Jun-20 23:57N 46°46' W 092°06'0 0.0
2018-Jun-20 23:30N 46°46' W 092°06'0 0.0
2018-Jun-20 23:00N 46°46' W 092°06'0 0.0
2018-Jun-20 22:30N 46°46' W 092°06'0 0.0
2018-Jun-20 22:00N 46°46' W 092°06'0 0.0
2018-Jun-20 21:30N 46°46' W 092°06'0 0.0
2018-Jun-20 19:36N 46°46' W 092°06'0 0.0
2018-Jun-20 19:30N 46°46' W 092°06'0 0.0
2018-Jun-20 19:00N 46°46' W 092°06'0 0.0
2018-Jun-20 18:30N 46°46' W 092°06'0 0.0
2018-Jun-20 18:00N 46°46' W 092°06'0 0.0
2018-Jun-20 17:30N 46°46' W 092°06'0 0.0
2018-Jun-20 17:00N 46°46' W 092°06'0 0.0
2018-Jun-20 16:30N 46°46' W 092°06'0 0.0
2018-Jun-20 16:00N 46°46' W 092°06'0 0.0
2018-Jun-20 15:30N 46°46' W 092°06'0 0.0
2018-Jun-20 15:00N 46°46' W 092°06'0 0.0
2018-Jun-20 14:30N 46°46' W 092°06'0 0.0
2018-Jun-20 14:00N 46°46' W 092°06'0 0.0
2018-Jun-20 13:27N 46°46' W 092°06'0 0.0
2018-Jun-20 13:00N 46°46' W 092°06'0 0.0
2018-Jun-20 12:30N 46°46' W 092°06'0 0.0
2018-Jun-20 12:00N 46°46' W 092°06'0 0.0
2018-Jun-20 11:30N 46°46' W 092°06'0 0.0
2018-Jun-20 11:00N 46°46' W 092°06'0 0.0
2018-Jun-20 10:30N 46°46' W 092°06'0 0.0
2018-Jun-20 10:00N 46°46' W 092°06'0 0.0
2018-Jun-20 09:30N 46°46' W 092°06'0 0.0
2018-Jun-20 09:00N 46°46' W 092°06'0 0.0
2018-Jun-20 08:30N 46°46' W 092°06'0 0.0
2018-Jun-20 08:00N 46°46' W 092°06'0 0.0
2018-Jun-20 07:30N 46°46' W 092°06'0 0.0
2018-Jun-20 06:54N 46°46' W 092°06'0 0.0
2018-Jun-20 06:30N 46°46' W 092°06'0 0.0
2018-Jun-20 06:00N 46°46' W 092°06'0 0.0
2018-Jun-20 05:30N 46°46' W 092°06'0 0.0
2018-Jun-20 05:00N 46°46' W 092°06'0 0.0
2018-Jun-20 04:27N 46°46' W 092°06'0 0.0
2018-Jun-20 04:00N 46°46' W 092°06'0 0.0
2018-Jun-20 03:30N 46°46' W 092°06'0 0.0
2018-Jun-20 03:00N 46°46' W 092°06'0 0.0
2018-Jun-20 02:30N 46°46' W 092°06'0 0.0
2018-Jun-20 02:00N 46°46' W 092°06'0 0.0
2018-Jun-20 01:30N 46°46' W 092°06'0 0.0
2018-Jun-20 01:00N 46°46' W 092°06'0 0.0
2018-Jun-20 00:27N 46°46' W 092°06'0 0.0
2018-Jun-20 00:00N 46°46' W 092°06'0 0.0
2018-Jun-19 23:27N 46°46' W 092°06'0 0.0
2018-Jun-19 23:00N 46°46' W 092°06'0 0.0
2018-Jun-19 22:30N 46°46' W 092°06'0 0.0
2018-Jun-19 22:00N 46°46' W 092°06'0 0.0
2018-Jun-19 21:30N 46°46' W 092°06'0 0.0
2018-Jun-19 21:00N 46°46' W 092°06'0 0.0
2018-Jun-19 20:30N 46°46' W 092°06'0 0.0
2018-Jun-19 20:00N 46°46' W 092°06'0 0.0
2018-Jun-19 19:30N 46°46' W 092°06'0 0.0
2018-Jun-19 18:59N 46°46' W 092°06'0 0.0
2018-Jun-19 18:29N 46°46' W 092°06'0 0.0
2018-Jun-19 17:59N 46°46' W 092°06'0 0.0
2018-Jun-19 17:30N 46°46' W 092°06'0 0.0
2018-Jun-19 17:00N 46°46' W 092°06'0 0.0
2018-Jun-19 16:30N 46°46' W 092°06'0 0.0
2018-Jun-19 16:00N 46°46' W 092°06'0 0.0
2018-Jun-19 15:29N 46°46' W 092°06'0 0.0
2018-Jun-19 15:00N 46°46' W 092°06'0 0.0
2018-Jun-19 14:30N 46°46' W 092°06'0 0.0
2018-Jun-19 13:59N 46°46' W 092°06'0 0.0
2018-Jun-19 13:30N 46°46' W 092°06'0 0.0
2018-Jun-19 12:59N 46°46' W 092°06'0 0.0
2018-Jun-19 12:30N 46°46' W 092°06'0 0.0
2018-Jun-19 12:00N 46°46' W 092°06'0 0.0
2018-Jun-19 11:30N 46°46' W 092°06'0 0.0
2018-Jun-19 10:57N 46°46' W 092°06'0 0.0
2018-Jun-19 10:29N 46°46' W 092°06'0 0.0
2018-Jun-19 09:59N 46°46' W 092°06'0 0.0
2018-Jun-19 09:30N 46°46' W 092°06'0 0.0
2018-Jun-19 09:00N 46°46' W 092°06'0 0.0
2018-Jun-19 08:30N 46°46' W 092°06'0 0.0
2018-Jun-19 07:56N 46°46' W 092°06'0 0.0
2018-Jun-19 07:30N 46°46' W 092°06'0 0.0
2018-Jun-19 07:00N 46°46' W 092°06'0 0.0
2018-Jun-19 06:30N 46°46' W 092°06'0 0.0
2018-Jun-19 05:59N 46°46' W 092°06'0 0.0
2018-Jun-19 05:30N 46°46' W 092°06'0 0.0
2018-Jun-19 04:59N 46°46' W 092°06'0 0.0
2018-Jun-19 04:29N 46°46' W 092°06'0 0.0
2018-Jun-19 03:59N 46°46' W 092°06'0 0.0
2018-Jun-19 03:29N 46°46' W 092°06'0 0.0
2018-Jun-19 03:00N 46°46' W 092°06'0 0.0
2018-Jun-19 02:29N 46°46' W 092°06'0 0.0
2018-Jun-19 01:59N 46°46' W 092°06'0 0.0
2018-Jun-19 01:29N 46°46' W 092°06'0 0.0
2018-Jun-19 01:00N 46°46' W 092°06'0 0.0
2018-Jun-19 00:29N 46°46' W 092°06'0 0.0
2018-Jun-18 23:59N 46°46' W 092°06'0 0.0
2018-Jun-18 23:29N 46°46' W 092°06'0 0.0
2018-Jun-18 22:59N 46°46' W 092°06'0 0.0
2018-Jun-18 22:26N 46°46' W 092°06'0 0.0
2018-Jun-18 21:59N 46°46' W 092°06'0 0.0
2018-Jun-18 21:29N 46°46' W 092°06'0 0.0
2018-Jun-18 20:59N 46°46' W 092°06'0 0.0
2018-Jun-18 20:29N 46°46' W 092°06'0 0.0
2018-Jun-18 19:59N 46°46' W 092°06'0 0.0
2018-Jun-18 19:29N 46°46' W 092°06'0 0.0
2018-Jun-18 18:59N 46°46' W 092°06'0 0.0
2018-Jun-18 18:23N 46°46' W 092°06'0 0.0
2018-Jun-18 17:59N 46°46' W 092°06'0 0.0
2018-Jun-18 17:29N 46°46' W 092°06'0 0.0
2018-Jun-18 16:56N 46°46' W 092°06'0 0.0
2018-Jun-18 16:26N 46°46' W 092°06'0 0.0
2018-Jun-18 15:59N 46°46' W 092°06'0 0.0
2018-Jun-18 15:29N 46°46' W 092°06'0 0.0
2018-Jun-18 14:59N 46°46' W 092°06'0 0.0
2018-Jun-18 14:29N 46°46' W 092°06'0 0.0
2018-Jun-18 13:59N 46°46' W 092°06'0 0.0
2018-Jun-18 13:29N 46°46' W 092°06'0 0.0
2018-Jun-18 12:59N 46°46' W 092°06'0 0.0
2018-Jun-18 12:29N 46°46' W 092°06'0 0.0
2018-Jun-18 11:59N 46°46' W 092°06'0 0.0
2018-Jun-18 11:29N 46°46' W 092°06'0 0.0
2018-Jun-18 10:59N 46°46' W 092°06'0 0.0
2018-Jun-18 10:29N 46°46' W 092°06'0 0.0
2018-Jun-18 09:59N 46°46' W 092°06'0 0.0
2018-Jun-18 09:29N 46°46' W 092°06'0 0.0
2018-Jun-18 08:59N 46°46' W 092°06'0 0.0
2018-Jun-18 08:29N 46°46' W 092°06'0 0.0
2018-Jun-18 07:59N 46°46' W 092°06'0 0.0
2018-Jun-18 07:29N 46°46' W 092°06'0 0.0
2018-Jun-18 06:59N 46°46' W 092°06'0 0.0
2018-Jun-18 06:29N 46°46' W 092°06'0 0.0
2018-Jun-18 05:59N 46°46' W 092°06'0 0.0
2018-Jun-18 05:29N 46°46' W 092°06'0 0.0
2018-Jun-18 04:56N 46°46' W 092°06'0 0.0
2018-Jun-18 04:29N 46°46' W 092°06'0 0.0
2018-Jun-18 03:56N 46°46' W 092°06'0 0.0
2018-Jun-18 03:29N 46°46' W 092°06'0 0.0
2018-Jun-18 02:59N 46°46' W 092°06'0 0.0
2018-Jun-18 02:29N 46°46' W 092°06'0 0.0
2018-Jun-18 01:59N 46°46' W 092°06'0 0.0
2018-Jun-18 01:29N 46°46' W 092°06'0 0.0
2018-Jun-18 00:59N 46°46' W 092°06'0 0.0
2018-Jun-18 00:29N 46°46' W 092°06'0 0.0
2018-Jun-17 23:59N 46°46' W 092°06'0 0.0
2018-Jun-17 23:29N 46°46' W 092°06'0 0.0
2018-Jun-17 22:59N 46°46' W 092°06'0 0.0
2018-Jun-17 22:29N 46°46' W 092°06'0 0.0
2018-Jun-17 21:59N 46°46' W 092°06'0 0.0
2018-Jun-17 21:29N 46°46' W 092°06'0 0.0
2018-Jun-17 20:59N 46°46' W 092°06'0 0.0
2018-Jun-17 20:29N 46°46' W 092°06'0 0.0
2018-Jun-17 19:59N 46°46' W 092°06'0 0.0
2018-Jun-17 19:29N 46°46' W 092°06'0 0.0
2018-Jun-17 18:59N 46°46' W 092°06'0 0.0
2018-Jun-17 18:29N 46°46' W 092°06'0 0.0
2018-Jun-17 17:59N 46°46' W 092°06'0 0.0
2018-Jun-17 17:29N 46°46' W 092°06'0 0.0
2018-Jun-17 16:59N 46°46' W 092°06'0 0.0
2018-Jun-17 16:29N 46°46' W 092°06'0 0.0
2018-Jun-17 15:59N 46°46' W 092°06'0 0.0
2018-Jun-17 15:29N 46°46' W 092°06'0 0.0
2018-Jun-17 14:59N 46°46' W 092°06'0 0.0
2018-Jun-17 14:29N 46°46' W 092°06'0 0.0
2018-Jun-17 13:59N 46°46' W 092°06'0 0.0
2018-Jun-17 13:29N 46°46' W 092°06'0 0.0
2018-Jun-17 12:59N 46°46' W 092°06'0 0.0
2018-Jun-17 12:26N 46°46' W 092°06'0 0.0
2018-Jun-17 11:59N 46°46' W 092°06'0 0.0
2018-Jun-17 11:29N 46°46' W 092°06'0 0.0
2018-Jun-17 10:59N 46°46' W 092°06'0 0.0
2018-Jun-17 10:29N 46°46' W 092°06'0 0.0
2018-Jun-17 09:59N 46°46' W 092°06'0 0.0
2018-Jun-17 09:29N 46°46' W 092°06'0 0.0
2018-Jun-17 08:59N 46°46' W 092°06'0 0.0
2018-Jun-17 08:29N 46°46' W 092°06'0 0.0
2018-Jun-17 07:59N 46°46' W 092°06'0 0.0
2018-Jun-17 07:29N 46°46' W 092°06'0 0.0
2018-Jun-17 06:59N 46°46' W 092°06'0 0.0
2018-Jun-17 06:29N 46°46' W 092°06'0 0.0
2018-Jun-17 05:59N 46°46' W 092°06'0 0.0
2018-Jun-17 05:29N 46°46' W 092°06'0 0.0
2018-Jun-17 04:59N 46°46' W 092°06'0 0.0
2018-Jun-17 04:29N 46°46' W 092°06'0 0.0
2018-Jun-17 03:59N 46°46' W 092°06'0 0.0
2018-Jun-17 03:29N 46°46' W 092°06'0 0.0
2018-Jun-17 02:59N 46°46' W 092°06'0 0.0
2018-Jun-17 02:29N 46°46' W 092°06'0 0.0
2018-Jun-17 01:59N 46°46' W 092°06'0 0.0
2018-Jun-17 01:29N 46°46' W 092°06'0 0.0
2018-Jun-17 00:59N 46°46' W 092°06'0 0.0
2018-Jun-17 00:29N 46°46' W 092°06'0 0.0
2018-Jun-16 23:59N 46°46' W 092°06'0 0.0
2018-Jun-16 23:29N 46°46' W 092°06'0 0.0
2018-Jun-16 22:59N 46°46' W 092°06'0 0.0
2018-Jun-16 22:26N 46°46' W 092°06'0 0.0
2018-Jun-16 21:59N 46°46' W 092°06'0 0.0
2018-Jun-16 21:29N 46°46' W 092°06'0 0.0
2018-Jun-16 20:59N 46°46' W 092°06'0 0.0
2018-Jun-16 20:29N 46°46' W 092°06'0 0.0
2018-Jun-16 19:56N 46°46' W 092°06'0 0.0
2018-Jun-16 19:29N 46°46' W 092°06'0 0.0
2018-Jun-16 18:59N 46°46' W 092°06'0 0.0
2018-Jun-16 18:29N 46°46' W 092°06'0 0.0
2018-Jun-16 17:59N 46°46' W 092°06'0 0.0
2018-Jun-16 17:26N 46°46' W 092°06'0 0.0
2018-Jun-16 16:59N 46°46' W 092°06'0 0.0
2018-Jun-16 16:29N 46°46' W 092°06'0 0.0
2018-Jun-16 15:59N 46°46' W 092°06'0 0.0
2018-Jun-16 15:29N 46°46' W 092°06'0 0.0
2018-Jun-16 14:59N 46°46' W 092°06'0 0.0
2018-Jun-16 14:29N 46°46' W 092°06'0 0.0
2018-Jun-16 13:59N 46°46' W 092°06'0 0.0
2018-Jun-16 13:29N 46°46' W 092°06'0 0.0
2018-Jun-16 12:59N 46°46' W 092°06'0 0.0
2018-Jun-16 12:29N 46°46' W 092°06'0 0.0
2018-Jun-16 11:59N 46°46' W 092°06'0 0.0
2018-Jun-16 11:29N 46°46' W 092°06'0 0.0
2018-Jun-16 10:59N 46°46' W 092°06'0 0.0
2018-Jun-16 10:29N 46°46' W 092°06'0 0.0
2018-Jun-16 09:59N 46°46' W 092°06'0 0.0
2018-Jun-16 09:29N 46°46' W 092°06'0 0.0
2018-Jun-16 08:56N 46°46' W 092°06'0 0.0
2018-Jun-16 08:29N 46°46' W 092°06'0 0.0
2018-Jun-16 07:53N 46°46' W 092°06'0 0.0
2018-Jun-16 07:26N 46°46' W 092°06'0 0.0
2018-Jun-16 06:59N 46°46' W 092°06'0 0.0
2018-Jun-16 06:29N 46°46' W 092°06'0 0.0
2018-Jun-16 05:59N 46°46' W 092°06'0 0.0
2018-Jun-16 05:29N 46°46' W 092°06'0 0.0
2018-Jun-16 04:59N 46°46' W 092°06'0 0.0
2018-Jun-16 04:29N 46°46' W 092°06'0 0.0
2018-Jun-16 03:59N 46°46' W 092°06'0 0.0
2018-Jun-16 03:29N 46°46' W 092°06'0 0.0
2018-Jun-16 02:59N 46°46' W 092°06'0 0.0
2018-Jun-16 02:29N 46°46' W 092°06'0 0.0
2018-Jun-16 01:59N 46°46' W 092°06'0 0.0
2018-Jun-16 01:29N 46°46' W 092°06'0 0.0
2018-Jun-16 00:59N 46°46' W 092°06'0 0.0
2018-Jun-16 00:29N 46°46' W 092°06'0 0.0
2018-Jun-15 23:59N 46°46' W 092°06'0 0.0
2018-Jun-15 23:29N 46°46' W 092°06'0 0.0
2018-Jun-15 22:59N 46°46' W 092°06'0 0.0
2018-Jun-15 22:29N 46°46' W 092°06'0 0.0
2018-Jun-15 21:59N 46°46' W 092°06'0 0.0
2018-Jun-15 21:29N 46°46' W 092°06'0 0.0
2018-Jun-15 20:59N 46°46' W 092°06'0 0.0
2018-Jun-15 20:29N 46°46' W 092°06'0 0.0
2018-Jun-15 19:47N 46°46' W 092°06'0 0.0
2018-Jun-15 19:29N 46°46' W 092°06'0 0.0
2018-Jun-15 18:59N 46°46' W 092°06'0 0.0
2018-Jun-15 18:29N 46°46' W 092°06'0 0.0
2018-Jun-15 17:59N 46°46' W 092°06'0 0.0
2018-Jun-15 17:29N 46°46' W 092°06'0 0.0
2018-Jun-15 16:59N 46°46' W 092°06'0 0.0
2018-Jun-15 16:29N 46°46' W 092°06'0 0.0
2018-Jun-15 15:59N 46°46' W 092°06'0 0.0
2018-Jun-15 15:29N 46°46' W 092°06'0 0.0
2018-Jun-15 14:59N 46°46' W 092°06'0 0.0
2018-Jun-15 14:29N 46°46' W 092°06'0 0.0
2018-Jun-15 13:59N 46°46' W 092°06'0 0.0
2018-Jun-15 13:29N 46°46' W 092°06'0 0.0
2018-Jun-15 12:59N 46°46' W 092°06'0 0.0
2018-Jun-15 12:29N 46°46' W 092°06'0 0.0
2018-Jun-15 11:59N 46°46' W 092°06'0 0.0
2018-Jun-15 11:29N 46°46' W 092°06'0 0.0
2018-Jun-15 10:59N 46°46' W 092°06'0 0.0
2018-Jun-15 10:29N 46°46' W 092°06'0 0.0
2018-Jun-15 09:59N 46°46' W 092°06'0 0.0
2018-Jun-15 09:29N 46°46' W 092°06'0 0.0
2018-Jun-15 08:59N 46°46' W 092°06'0 0.0
2018-Jun-15 08:29N 46°46' W 092°06'0 0.0
2018-Jun-15 07:59N 46°46' W 092°06'0 0.0
2018-Jun-15 07:29N 46°46' W 092°06'0 0.0
2018-Jun-15 06:59N 46°46' W 092°06'0 0.0
2018-Jun-15 06:23N 46°46' W 092°06'0 0.0
2018-Jun-15 05:59N 46°46' W 092°06'0 0.0
2018-Jun-15 05:29N 46°46' W 092°06'0 0.0
2018-Jun-15 04:59N 46°46' W 092°06'0 0.0
2018-Jun-15 04:29N 46°46' W 092°06'0 0.0
2018-Jun-15 03:59N 46°46' W 092°06'0 0.0
2018-Jun-15 03:29N 46°46' W 092°06'0 0.0
2018-Jun-15 02:59N 46°46' W 092°06'0 0.0
2018-Jun-15 02:29N 46°46' W 092°06'0 0.0
2018-Jun-15 01:59N 46°46' W 092°06'0 0.0
2018-Jun-15 01:29N 46°46' W 092°06'0 0.0
2018-Jun-15 00:59N 46°46' W 092°06'0 0.0
2018-Jun-15 00:29N 46°46' W 092°06'0 0.0
2018-Jun-14 23:59N 46°46' W 092°06'0 0.0
2018-Jun-14 23:29N 46°46' W 092°06'0 0.0
2018-Jun-14 22:59N 46°46' W 092°06'0 0.0
2018-Jun-14 22:26N 46°46' W 092°06'0 0.0
2018-Jun-14 21:59N 46°46' W 092°06'0 0.0
2018-Jun-14 21:29N 46°46' W 092°06'0 0.0
2018-Jun-14 20:59N 46°46' W 092°06'0 0.0
2018-Jun-14 20:29N 46°46' W 092°06'0 0.0
2018-Jun-14 19:56N 46°46' W 092°06'0 0.0
2018-Jun-14 19:29N 46°46' W 092°06'0 0.0
2018-Jun-14 18:59N 46°46' W 092°06'0 0.0
2018-Jun-14 18:29N 46°46' W 092°06'0 0.0
2018-Jun-14 17:59N 46°46' W 092°06'0 0.0
2018-Jun-14 17:29N 46°46' W 092°06'0 0.0
2018-Jun-14 16:59N 46°46' W 092°06'0 0.0
2018-Jun-14 16:29N 46°46' W 092°06'0 0.0
2018-Jun-14 15:59N 46°46' W 092°06'0 0.0
2018-Jun-14 15:29N 46°46' W 092°06'0 0.0
2018-Jun-14 14:59N 46°46' W 092°06'0 0.0
2018-Jun-14 14:29N 46°46' W 092°06'0 0.0
2018-Jun-14 13:59N 46°46' W 092°06'0 0.0
2018-Jun-14 13:29N 46°46' W 092°06'0 0.0
2018-Jun-14 12:59N 46°46' W 092°06'0 0.0
2018-Jun-14 12:29N 46°46' W 092°06'0 0.0
2018-Jun-14 11:59N 46°46' W 092°06'0 0.0
2018-Jun-14 11:29N 46°46' W 092°06'0 0.0
2018-Jun-14 10:59N 46°46' W 092°06'0 0.0
2018-Jun-14 10:29N 46°46' W 092°06'0 0.0
2018-Jun-14 09:59N 46°46' W 092°06'0 0.0
2018-Jun-14 09:29N 46°46' W 092°06'  

Dump ship's entire track history